sensor_id;sensor_type;location;lat;lon;timestamp;P1;durP1;ratioP1;P2;durP2;ratioP2
13481;SDS011;6813;60.352;15.746;2023-04-24T00:01:47;0.30;;;0.30;;
13481;SDS011;6813;60.352;15.746;2023-04-24T00:04:13;0.43;;;0.40;;
13481;SDS011;6813;60.352;15.746;2023-04-24T00:06:41;0.50;;;0.37;;
13481;SDS011;6813;60.352;15.746;2023-04-24T00:09:07;0.40;;;0.30;;
13481;SDS011;6813;60.352;15.746;2023-04-24T00:11:36;0.93;;;0.40;;
13481;SDS011;6813;60.352;15.746;2023-04-24T00:14:02;0.60;;;0.57;;
13481;SDS011;6813;60.352;15.746;2023-04-24T00:16:28;0.30;;;0.30;;
13481;SDS011;6813;60.352;15.746;2023-04-24T00:18:54;0.30;;;0.30;;
13481;SDS011;6813;60.352;15.746;2023-04-24T00:21:20;0.53;;;0.37;;
13481;SDS011;6813;60.352;15.746;2023-04-24T00:23:46;1.27;;;0.57;;
13481;SDS011;6813;60.352;15.746;2023-04-24T00:26:12;0.33;;;0.33;;
13481;SDS011;6813;60.352;15.746;2023-04-24T00:28:38;2.30;;;0.30;;
13481;SDS011;6813;60.352;15.746;2023-04-24T00:31:04;0.50;;;0.40;;
13481;SDS011;6813;60.352;15.746;2023-04-24T00:33:29;0.37;;;0.37;;
13481;SDS011;6813;60.352;15.746;2023-04-24T00:35:55;0.50;;;0.40;;
13481;SDS011;6813;60.352;15.746;2023-04-24T00:38:21;1.13;;;0.33;;
13481;SDS011;6813;60.352;15.746;2023-04-24T00:40:47;0.77;;;0.40;;
13481;SDS011;6813;60.352;15.746;2023-04-24T00:43:15;0.30;;;0.30;;
13481;SDS011;6813;60.352;15.746;2023-04-24T00:45:41;0.83;;;0.40;;
13481;SDS011;6813;60.352;15.746;2023-04-24T00:48:07;0.73;;;0.30;;
13481;SDS011;6813;60.352;15.746;2023-04-24T00:50:33;0.87;;;0.50;;
13481;SDS011;6813;60.352;15.746;2023-04-24T00:53:00;0.50;;;0.50;;
13481;SDS011;6813;60.352;15.746;2023-04-24T00:55:26;0.43;;;0.40;;
13481;SDS011;6813;60.352;15.746;2023-04-24T00:57:52;0.30;;;0.30;;
13481;SDS011;6813;60.352;15.746;2023-04-24T01:00:18;0.30;;;0.30;;
13481;SDS011;6813;60.352;15.746;2023-04-24T01:02:44;0.57;;;0.40;;
13481;SDS011;6813;60.352;15.746;2023-04-24T01:05:13;0.40;;;0.20;;
13481;SDS011;6813;60.352;15.746;2023-04-24T01:07:40;0.30;;;0.20;;
13481;SDS011;6813;60.352;15.746;2023-04-24T01:10:10;0.67;;;0.40;;
13481;SDS011;6813;60.352;15.746;2023-04-24T01:12:37;2.17;;;0.30;;
13481;SDS011;6813;60.352;15.746;2023-04-24T01:15:04;0.53;;;0.43;;
13481;SDS011;6813;60.352;15.746;2023-04-24T01:17:31;0.73;;;0.33;;
13481;SDS011;6813;60.352;15.746;2023-04-24T01:19:57;2.27;;;0.50;;
13481;SDS011;6813;60.352;15.746;2023-04-24T01:22:25;0.40;;;0.40;;
13481;SDS011;6813;60.352;15.746;2023-04-24T01:24:51;0.40;;;0.40;;
13481;SDS011;6813;60.352;15.746;2023-04-24T01:27:17;0.30;;;0.30;;
13481;SDS011;6813;60.352;15.746;2023-04-24T01:29:44;0.30;;;0.27;;
13481;SDS011;6813;60.352;15.746;2023-04-24T01:32:12;0.70;;;0.50;;
13481;SDS011;6813;60.352;15.746;2023-04-24T01:34:38;0.50;;;0.30;;
13481;SDS011;6813;60.352;15.746;2023-04-24T01:37:05;0.70;;;0.50;;
13481;SDS011;6813;60.352;15.746;2023-04-24T01:39:31;0.67;;;0.50;;
13481;SDS011;6813;60.352;15.746;2023-04-24T01:41:58;0.50;;;0.47;;
13481;SDS011;6813;60.352;15.746;2023-04-24T01:44:27;0.33;;;0.30;;
13481;SDS011;6813;60.352;15.746;2023-04-24T01:46:53;0.20;;;0.20;;
13481;SDS011;6813;60.352;15.746;2023-04-24T01:49:20;0.40;;;0.30;;
13481;SDS011;6813;60.352;15.746;2023-04-24T01:51:46;0.30;;;0.30;;
13481;SDS011;6813;60.352;15.746;2023-04-24T01:54:12;0.40;;;0.40;;
13481;SDS011;6813;60.352;15.746;2023-04-24T01:56:39;0.30;;;0.30;;
13481;SDS011;6813;60.352;15.746;2023-04-24T01:59:07;0.40;;;0.40;;
13481;SDS011;6813;60.352;15.746;2023-04-24T02:01:35;0.27;;;0.27;;
13481;SDS011;6813;60.352;15.746;2023-04-24T02:04:02;0.30;;;0.30;;
13481;SDS011;6813;60.352;15.746;2023-04-24T02:06:29;0.60;;;0.40;;
13481;SDS011;6813;60.352;15.746;2023-04-24T02:08:59;0.30;;;0.30;;
13481;SDS011;6813;60.352;15.746;2023-04-24T02:11:25;0.30;;;0.30;;
13481;SDS011;6813;60.352;15.746;2023-04-24T02:13:51;0.97;;;0.50;;
13481;SDS011;6813;60.352;15.746;2023-04-24T02:16:19;0.40;;;0.40;;
13481;SDS011;6813;60.352;15.746;2023-04-24T02:18:44;0.60;;;0.60;;
13481;SDS011;6813;60.352;15.746;2023-04-24T02:21:10;0.20;;;0.20;;
13481;SDS011;6813;60.352;15.746;2023-04-24T02:23:36;0.30;;;0.30;;
13481;SDS011;6813;60.352;15.746;2023-04-24T02:26:02;0.50;;;0.50;;
13481;SDS011;6813;60.352;15.746;2023-04-24T02:28:27;0.50;;;0.50;;
13481;SDS011;6813;60.352;15.746;2023-04-24T02:30:53;0.30;;;0.30;;
13481;SDS011;6813;60.352;15.746;2023-04-24T02:33:19;0.43;;;0.43;;
13481;SDS011;6813;60.352;15.746;2023-04-24T02:35:45;0.80;;;0.60;;
13481;SDS011;6813;60.352;15.746;2023-04-24T02:38:10;0.40;;;0.40;;
13481;SDS011;6813;60.352;15.746;2023-04-24T02:40:36;0.40;;;0.40;;
13481;SDS011;6813;60.352;15.746;2023-04-24T02:43:02;0.70;;;0.50;;
13481;SDS011;6813;60.352;15.746;2023-04-24T02:45:28;0.73;;;0.50;;
13481;SDS011;6813;60.352;15.746;2023-04-24T02:47:53;0.60;;;0.60;;
13481;SDS011;6813;60.352;15.746;2023-04-24T02:50:19;0.80;;;0.60;;
13481;SDS011;6813;60.352;15.746;2023-04-24T02:52:45;0.47;;;0.47;;
13481;SDS011;6813;60.352;15.746;2023-04-24T02:55:10;0.50;;;0.50;;
13481;SDS011;6813;60.352;15.746;2023-04-24T02:57:36;0.60;;;0.50;;
13481;SDS011;6813;60.352;15.746;2023-04-24T03:00:02;0.40;;;0.40;;
13481;SDS011;6813;60.352;15.746;2023-04-24T03:02:28;0.60;;;0.50;;
13481;SDS011;6813;60.352;15.746;2023-04-24T03:04:54;0.50;;;0.50;;
13481;SDS011;6813;60.352;15.746;2023-04-24T03:07:20;0.53;;;0.53;;
13481;SDS011;6813;60.352;15.746;2023-04-24T03:09:46;0.83;;;0.43;;
13481;SDS011;6813;60.352;15.746;2023-04-24T03:12:12;1.03;;;0.80;;
13481;SDS011;6813;60.352;15.746;2023-04-24T03:14:38;0.67;;;0.50;;
13481;SDS011;6813;60.352;15.746;2023-04-24T03:17:04;1.67;;;0.53;;
13481;SDS011;6813;60.352;15.746;2023-04-24T03:19:31;0.60;;;0.60;;
13481;SDS011;6813;60.352;15.746;2023-04-24T03:21:56;0.60;;;0.60;;
13481;SDS011;6813;60.352;15.746;2023-04-24T03:24:22;0.50;;;0.50;;
13481;SDS011;6813;60.352;15.746;2023-04-24T03:26:48;0.60;;;0.60;;
13481;SDS011;6813;60.352;15.746;2023-04-24T03:29:13;0.80;;;0.60;;
13481;SDS011;6813;60.352;15.746;2023-04-24T03:31:39;1.13;;;0.93;;
13481;SDS011;6813;60.352;15.746;2023-04-24T03:34:05;1.00;;;0.60;;
13481;SDS011;6813;60.352;15.746;2023-04-24T03:36:30;0.63;;;0.63;;
13481;SDS011;6813;60.352;15.746;2023-04-24T03:38:56;0.70;;;0.70;;
13481;SDS011;6813;60.352;15.746;2023-04-24T03:41:22;0.60;;;0.60;;
13481;SDS011;6813;60.352;15.746;2023-04-24T03:43:48;0.80;;;0.70;;
13481;SDS011;6813;60.352;15.746;2023-04-24T03:46:14;1.10;;;0.80;;
13481;SDS011;6813;60.352;15.746;2023-04-24T03:48:40;0.60;;;0.60;;
13481;SDS011;6813;60.352;15.746;2023-04-24T03:51:05;0.60;;;0.60;;
13481;SDS011;6813;60.352;15.746;2023-04-24T03:53:31;0.80;;;0.80;;
13481;SDS011;6813;60.352;15.746;2023-04-24T03:55:57;1.07;;;1.00;;
13481;SDS011;6813;60.352;15.746;2023-04-24T03:58:22;1.30;;;1.17;;
13481;SDS011;6813;60.352;15.746;2023-04-24T04:00:48;1.10;;;1.00;;
13481;SDS011;6813;60.352;15.746;2023-04-24T04:03:14;1.70;;;0.80;;
13481;SDS011;6813;60.352;15.746;2023-04-24T04:05:40;1.20;;;1.00;;
13481;SDS011;6813;60.352;15.746;2023-04-24T04:08:06;0.80;;;0.80;;
13481;SDS011;6813;60.352;15.746;2023-04-24T04:10:31;0.60;;;0.60;;
13481;SDS011;6813;60.352;15.746;2023-04-24T04:12:57;0.80;;;0.80;;
13481;SDS011;6813;60.352;15.746;2023-04-24T04:15:23;0.93;;;0.87;;
13481;SDS011;6813;60.352;15.746;2023-04-24T04:17:48;0.80;;;0.80;;
13481;SDS011;6813;60.352;15.746;2023-04-24T04:20:14;0.70;;;0.60;;
13481;SDS011;6813;60.352;15.746;2023-04-24T04:22:40;0.70;;;0.70;;
13481;SDS011;6813;60.352;15.746;2023-04-24T04:25:06;1.97;;;1.13;;
13481;SDS011;6813;60.352;15.746;2023-04-24T04:27:33;0.73;;;0.70;;
13481;SDS011;6813;60.352;15.746;2023-04-24T04:29:59;0.87;;;0.77;;
13481;SDS011;6813;60.352;15.746;2023-04-24T04:32:32;0.60;;;0.60;;
13481;SDS011;6813;60.352;15.746;2023-04-24T04:34:59;1.10;;;1.00;;
13481;SDS011;6813;60.352;15.746;2023-04-24T04:37:29;3.90;;;0.83;;
13481;SDS011;6813;60.352;15.746;2023-04-24T04:39:56;1.00;;;0.90;;
13481;SDS011;6813;60.352;15.746;2023-04-24T04:42:23;0.80;;;0.80;;
13481;SDS011;6813;60.352;15.746;2023-04-24T04:44:53;0.90;;;0.90;;
13481;SDS011;6813;60.352;15.746;2023-04-24T04:47:20;0.97;;;0.80;;
13481;SDS011;6813;60.352;15.746;2023-04-24T04:49:48;0.70;;;0.70;;
13481;SDS011;6813;60.352;15.746;2023-04-24T04:52:16;1.07;;;0.90;;
13481;SDS011;6813;60.352;15.746;2023-04-24T04:54:42;0.77;;;0.77;;
13481;SDS011;6813;60.352;15.746;2023-04-24T04:57:08;1.00;;;0.67;;
13481;SDS011;6813;60.352;15.746;2023-04-24T04:59:34;0.93;;;0.90;;
13481;SDS011;6813;60.352;15.746;2023-04-24T05:02:00;0.83;;;0.83;;
13481;SDS011;6813;60.352;15.746;2023-04-24T05:04:26;0.70;;;0.70;;
13481;SDS011;6813;60.352;15.746;2023-04-24T05:06:51;0.50;;;0.50;;
13481;SDS011;6813;60.352;15.746;2023-04-24T05:09:18;1.67;;;0.70;;
13481;SDS011;6813;60.352;15.746;2023-04-24T05:11:43;0.90;;;0.90;;
13481;SDS011;6813;60.352;15.746;2023-04-24T05:14:09;0.57;;;0.57;;
13481;SDS011;6813;60.352;15.746;2023-04-24T05:16:37;0.83;;;0.80;;
13481;SDS011;6813;60.352;15.746;2023-04-24T05:19:03;0.70;;;0.70;;
13481;SDS011;6813;60.352;15.746;2023-04-24T05:21:29;0.70;;;0.70;;
13481;SDS011;6813;60.352;15.746;2023-04-24T05:23:56;0.70;;;0.70;;
13481;SDS011;6813;60.352;15.746;2023-04-24T05:26:21;0.70;;;0.70;;
13481;SDS011;6813;60.352;15.746;2023-04-24T05:28:47;0.60;;;0.60;;
13481;SDS011;6813;60.352;15.746;2023-04-24T05:31:13;0.50;;;0.50;;
13481;SDS011;6813;60.352;15.746;2023-04-24T05:33:39;1.00;;;0.90;;
13481;SDS011;6813;60.352;15.746;2023-04-24T05:36:05;0.73;;;0.70;;
13481;SDS011;6813;60.352;15.746;2023-04-24T05:38:31;0.90;;;0.90;;
13481;SDS011;6813;60.352;15.746;2023-04-24T05:40:57;0.80;;;0.80;;
13481;SDS011;6813;60.352;15.746;2023-04-24T05:43:23;1.23;;;0.90;;
13481;SDS011;6813;60.352;15.746;2023-04-24T05:45:48;0.90;;;0.90;;
13481;SDS011;6813;60.352;15.746;2023-04-24T05:48:14;2.13;;;1.20;;
13481;SDS011;6813;60.352;15.746;2023-04-24T05:50:40;0.87;;;0.87;;
13481;SDS011;6813;60.352;15.746;2023-04-24T05:53:06;1.13;;;1.03;;
13481;SDS011;6813;60.352;15.746;2023-04-24T05:55:32;0.73;;;0.73;;
13481;SDS011;6813;60.352;15.746;2023-04-24T05:57:58;1.07;;;1.03;;
13481;SDS011;6813;60.352;15.746;2023-04-24T06:00:24;1.40;;;1.30;;
13481;SDS011;6813;60.352;15.746;2023-04-24T06:02:50;1.20;;;1.10;;
13481;SDS011;6813;60.352;15.746;2023-04-24T06:05:16;1.00;;;1.00;;
13481;SDS011;6813;60.352;15.746;2023-04-24T06:07:42;1.40;;;1.17;;
13481;SDS011;6813;60.352;15.746;2023-04-24T06:10:08;1.13;;;1.10;;
13481;SDS011;6813;60.352;15.746;2023-04-24T06:12:34;1.30;;;1.20;;
13481;SDS011;6813;60.352;15.746;2023-04-24T06:15:01;1.23;;;1.13;;
13481;SDS011;6813;60.352;15.746;2023-04-24T06:17:27;1.27;;;1.17;;
13481;SDS011;6813;60.352;15.746;2023-04-24T06:19:53;1.40;;;1.30;;
13481;SDS011;6813;60.352;15.746;2023-04-24T06:22:18;0.97;;;0.87;;
13481;SDS011;6813;60.352;15.746;2023-04-24T06:24:44;1.30;;;1.10;;
13481;SDS011;6813;60.352;15.746;2023-04-24T06:27:10;0.70;;;0.70;;
13481;SDS011;6813;60.352;15.746;2023-04-24T06:29:36;0.90;;;0.90;;
13481;SDS011;6813;60.352;15.746;2023-04-24T06:32:01;1.20;;;1.10;;
13481;SDS011;6813;60.352;15.746;2023-04-24T06:34:27;1.13;;;1.03;;
13481;SDS011;6813;60.352;15.746;2023-04-24T06:36:53;0.90;;;0.90;;
13481;SDS011;6813;60.352;15.746;2023-04-24T06:39:20;1.10;;;1.00;;
13481;SDS011;6813;60.352;15.746;2023-04-24T06:41:46;1.20;;;1.10;;
13481;SDS011;6813;60.352;15.746;2023-04-24T06:44:11;0.80;;;0.80;;
13481;SDS011;6813;60.352;15.746;2023-04-24T06:46:39;1.67;;;1.00;;
13481;SDS011;6813;60.352;15.746;2023-04-24T06:49:06;1.20;;;1.10;;
13481;SDS011;6813;60.352;15.746;2023-04-24T06:51:31;1.40;;;1.30;;
13481;SDS011;6813;60.352;15.746;2023-04-24T06:53:58;1.17;;;1.07;;
13481;SDS011;6813;60.352;15.746;2023-04-24T06:56:24;0.93;;;0.93;;
13481;SDS011;6813;60.352;15.746;2023-04-24T06:58:51;1.20;;;1.00;;
13481;SDS011;6813;60.352;15.746;2023-04-24T07:01:17;1.20;;;1.10;;
13481;SDS011;6813;60.352;15.746;2023-04-24T07:03:42;1.33;;;1.03;;
13481;SDS011;6813;60.352;15.746;2023-04-24T07:06:09;1.10;;;1.00;;
13481;SDS011;6813;60.352;15.746;2023-04-24T07:08:36;1.30;;;0.97;;
13481;SDS011;6813;60.352;15.746;2023-04-24T07:11:02;3.43;;;0.90;;
13481;SDS011;6813;60.352;15.746;2023-04-24T07:13:28;1.20;;;1.10;;
13481;SDS011;6813;60.352;15.746;2023-04-24T07:15:54;1.20;;;1.10;;
13481;SDS011;6813;60.352;15.746;2023-04-24T07:18:21;1.07;;;0.70;;
13481;SDS011;6813;60.352;15.746;2023-04-24T07:20:46;1.10;;;1.00;;
13481;SDS011;6813;60.352;15.746;2023-04-24T07:23:12;0.80;;;0.80;;
13481;SDS011;6813;60.352;15.746;2023-04-24T07:25:38;2.13;;;1.00;;
13481;SDS011;6813;60.352;15.746;2023-04-24T07:28:04;0.97;;;0.97;;
13481;SDS011;6813;60.352;15.746;2023-04-24T07:30:30;1.10;;;1.00;;
13481;SDS011;6813;60.352;15.746;2023-04-24T07:32:57;1.00;;;1.00;;
13481;SDS011;6813;60.352;15.746;2023-04-24T07:35:23;1.10;;;1.00;;
13481;SDS011;6813;60.352;15.746;2023-04-24T07:37:51;2.20;;;1.00;;
13481;SDS011;6813;60.352;15.746;2023-04-24T07:40:18;0.90;;;0.90;;
13481;SDS011;6813;60.352;15.746;2023-04-24T07:42:44;1.10;;;1.00;;
13481;SDS011;6813;60.352;15.746;2023-04-24T07:45:10;4.73;;;3.10;;
13481;SDS011;6813;60.352;15.746;2023-04-24T07:47:35;3.93;;;1.00;;
13481;SDS011;6813;60.352;15.746;2023-04-24T07:50:03;1.80;;;1.27;;
13481;SDS011;6813;60.352;15.746;2023-04-24T07:52:29;1.27;;;1.17;;
13481;SDS011;6813;60.352;15.746;2023-04-24T07:54:55;1.17;;;1.07;;
13481;SDS011;6813;60.352;15.746;2023-04-24T07:57:25;0.80;;;0.80;;
13481;SDS011;6813;60.352;15.746;2023-04-24T07:59:51;1.10;;;1.00;;
13481;SDS011;6813;60.352;15.746;2023-04-24T08:02:17;0.77;;;0.77;;
13481;SDS011;6813;60.352;15.746;2023-04-24T08:04:42;0.90;;;0.90;;
13481;SDS011;6813;60.352;15.746;2023-04-24T08:07:08;0.90;;;0.90;;
13481;SDS011;6813;60.352;15.746;2023-04-24T08:09:34;1.07;;;0.90;;
13481;SDS011;6813;60.352;15.746;2023-04-24T08:12:00;0.83;;;0.83;;
13481;SDS011;6813;60.352;15.746;2023-04-24T08:14:26;1.10;;;1.00;;
13481;SDS011;6813;60.352;15.746;2023-04-24T08:16:53;1.10;;;1.10;;
13481;SDS011;6813;60.352;15.746;2023-04-24T08:19:24;1.20;;;0.93;;
13481;SDS011;6813;60.352;15.746;2023-04-24T08:21:50;1.73;;;1.40;;
13481;SDS011;6813;60.352;15.746;2023-04-24T08:24:16;2.03;;;1.77;;
13481;SDS011;6813;60.352;15.746;2023-04-24T08:26:41;1.37;;;1.27;;
13481;SDS011;6813;60.352;15.746;2023-04-24T08:29:07;1.20;;;1.10;;
13481;SDS011;6813;60.352;15.746;2023-04-24T08:31:33;1.07;;;1.03;;
13481;SDS011;6813;60.352;15.746;2023-04-24T08:33:59;0.83;;;0.83;;
13481;SDS011;6813;60.352;15.746;2023-04-24T08:36:25;1.30;;;1.20;;
13481;SDS011;6813;60.352;15.746;2023-04-24T08:38:51;1.00;;;0.80;;
13481;SDS011;6813;60.352;15.746;2023-04-24T08:41:18;0.87;;;0.83;;
13481;SDS011;6813;60.352;15.746;2023-04-24T08:43:47;1.20;;;1.00;;
13481;SDS011;6813;60.352;15.746;2023-04-24T08:46:13;0.97;;;0.87;;
13481;SDS011;6813;60.352;15.746;2023-04-24T08:48:41;2.00;;;1.20;;
13481;SDS011;6813;60.352;15.746;2023-04-24T08:51:09;0.90;;;0.90;;
13481;SDS011;6813;60.352;15.746;2023-04-24T08:53:35;4.10;;;1.50;;
13481;SDS011;6813;60.352;15.746;2023-04-24T08:56:01;1.50;;;1.10;;
13481;SDS011;6813;60.352;15.746;2023-04-24T08:58:28;2.17;;;1.17;;
13481;SDS011;6813;60.352;15.746;2023-04-24T09:00:55;2.70;;;1.00;;
13481;SDS011;6813;60.352;15.746;2023-04-24T09:03:22;3.40;;;1.00;;
13481;SDS011;6813;60.352;15.746;2023-04-24T09:05:48;1.47;;;1.30;;
13481;SDS011;6813;60.352;15.746;2023-04-24T09:08:18;1.30;;;1.20;;
13481;SDS011;6813;60.352;15.746;2023-04-24T09:10:44;1.30;;;1.03;;
13481;SDS011;6813;60.352;15.746;2023-04-24T09:13:10;2.20;;;0.80;;
13481;SDS011;6813;60.352;15.746;2023-04-24T09:15:40;0.90;;;0.90;;
13481;SDS011;6813;60.352;15.746;2023-04-24T09:18:06;1.20;;;1.10;;
13481;SDS011;6813;60.352;15.746;2023-04-24T09:20:32;1.20;;;1.10;;
13481;SDS011;6813;60.352;15.746;2023-04-24T09:23:00;0.90;;;0.90;;
13481;SDS011;6813;60.352;15.746;2023-04-24T09:25:33;0.87;;;0.87;;
13481;SDS011;6813;60.352;15.746;2023-04-24T09:28:01;1.73;;;1.00;;
13481;SDS011;6813;60.352;15.746;2023-04-24T09:30:28;1.13;;;0.97;;
13481;SDS011;6813;60.352;15.746;2023-04-24T09:33:09;3.13;;;1.20;;
13481;SDS011;6813;60.352;15.746;2023-04-24T09:35:48;2.07;;;1.03;;
13481;SDS011;6813;60.352;15.746;2023-04-24T09:38:15;1.00;;;1.00;;
13481;SDS011;6813;60.352;15.746;2023-04-24T09:40:41;2.47;;;0.90;;
13481;SDS011;6813;60.352;15.746;2023-04-24T09:43:10;1.17;;;1.03;;
13481;SDS011;6813;60.352;15.746;2023-04-24T09:45:37;1.27;;;1.17;;
13481;SDS011;6813;60.352;15.746;2023-04-24T09:48:04;1.07;;;1.00;;
13481;SDS011;6813;60.352;15.746;2023-04-24T09:50:35;1.87;;;1.57;;
13481;SDS011;6813;60.352;15.746;2023-04-24T09:53:02;1.00;;;1.00;;
13481;SDS011;6813;60.352;15.746;2023-04-24T09:55:29;0.70;;;0.70;;
13481;SDS011;6813;60.352;15.746;2023-04-24T09:57:59;1.50;;;1.17;;
13481;SDS011;6813;60.352;15.746;2023-04-24T10:00:29;0.90;;;0.90;;
13481;SDS011;6813;60.352;15.746;2023-04-24T10:02:57;1.10;;;1.00;;
13481;SDS011;6813;60.352;15.746;2023-04-24T10:05:24;0.90;;;0.90;;
13481;SDS011;6813;60.352;15.746;2023-04-24T10:07:56;0.80;;;0.80;;
13481;SDS011;6813;60.352;15.746;2023-04-24T10:10:26;0.77;;;0.77;;
13481;SDS011;6813;60.352;15.746;2023-04-24T10:12:52;1.03;;;0.90;;
13481;SDS011;6813;60.352;15.746;2023-04-24T10:15:19;2.63;;;1.00;;
13481;SDS011;6813;60.352;15.746;2023-04-24T10:17:50;1.03;;;1.00;;
13481;SDS011;6813;60.352;15.746;2023-04-24T10:20:23;1.30;;;1.20;;
13481;SDS011;6813;60.352;15.746;2023-04-24T10:22:51;0.70;;;0.70;;
13481;SDS011;6813;60.352;15.746;2023-04-24T10:25:19;1.30;;;1.20;;
13481;SDS011;6813;60.352;15.746;2023-04-24T10:27:47;0.90;;;0.90;;
13481;SDS011;6813;60.352;15.746;2023-04-24T10:30:13;2.20;;;1.20;;
13481;SDS011;6813;60.352;15.746;2023-04-24T10:32:40;1.17;;;1.17;;
13481;SDS011;6813;60.352;15.746;2023-04-24T10:35:06;1.30;;;1.20;;
13481;SDS011;6813;60.352;15.746;2023-04-24T10:37:39;1.13;;;1.03;;
13481;SDS011;6813;60.352;15.746;2023-04-24T10:40:07;2.13;;;1.10;;
13481;SDS011;6813;60.352;15.746;2023-04-24T10:42:39;1.43;;;1.33;;
13481;SDS011;6813;60.352;15.746;2023-04-24T10:45:18;4.53;;;1.17;;
13481;SDS011;6813;60.352;15.746;2023-04-24T10:47:56;1.80;;;1.70;;
13481;SDS011;6813;60.352;15.746;2023-04-24T10:50:25;4.57;;;2.67;;
13481;SDS011;6813;60.352;15.746;2023-04-24T10:52:52;8.23;;;7.53;;
13481;SDS011;6813;60.352;15.746;2023-04-24T10:58:05;1.10;;;1.10;;
13481;SDS011;6813;60.352;15.746;2023-04-24T11:00:31;1.23;;;1.17;;
13481;SDS011;6813;60.352;15.746;2023-04-24T11:02:57;3.27;;;1.40;;
13481;SDS011;6813;60.352;15.746;2023-04-24T11:05:49;1.33;;;1.23;;
13481;SDS011;6813;60.352;15.746;2023-04-24T11:08:21;1.50;;;1.40;;
13481;SDS011;6813;60.352;15.746;2023-04-24T11:19:01;1.10;;;1.10;;
13481;SDS011;6813;60.352;15.746;2023-04-24T11:21:30;3.03;;;1.90;;
13481;SDS011;6813;60.352;15.746;2023-04-24T11:24:22;1.53;;;1.43;;
13481;SDS011;6813;60.352;15.746;2023-04-24T11:26:50;1.90;;;1.80;;
13481;SDS011;6813;60.352;15.746;2023-04-24T11:29:20;0.83;;;0.83;;
13481;SDS011;6813;60.352;15.746;2023-04-24T11:31:46;1.70;;;1.60;;
13481;SDS011;6813;60.352;15.746;2023-04-24T11:34:16;4.93;;;1.33;;
13481;SDS011;6813;60.352;15.746;2023-04-24T11:36:43;1.57;;;1.37;;
13481;SDS011;6813;60.352;15.746;2023-04-24T11:39:13;1.30;;;1.20;;
13481;SDS011;6813;60.352;15.746;2023-04-24T11:41:39;1.10;;;1.10;;
13481;SDS011;6813;60.352;15.746;2023-04-24T11:44:06;0.80;;;0.80;;
13481;SDS011;6813;60.352;15.746;2023-04-24T11:46:33;2.80;;;1.20;;
13481;SDS011;6813;60.352;15.746;2023-04-24T11:48:59;1.00;;;1.00;;
13481;SDS011;6813;60.352;15.746;2023-04-24T11:51:25;2.47;;;2.27;;
13481;SDS011;6813;60.352;15.746;2023-04-24T11:53:53;1.73;;;1.13;;
13481;SDS011;6813;60.352;15.746;2023-04-24T11:56:23;7.70;;;1.17;;
13481;SDS011;6813;60.352;15.746;2023-04-24T11:58:51;2.20;;;1.30;;
13481;SDS011;6813;60.352;15.746;2023-04-24T12:01:19;1.77;;;1.27;;
13481;SDS011;6813;60.352;15.746;2023-04-24T12:03:49;1.60;;;1.30;;
13481;SDS011;6813;60.352;15.746;2023-04-24T12:06:19;1.20;;;1.10;;
13481;SDS011;6813;60.352;15.746;2023-04-24T12:08:45;1.63;;;1.40;;
13481;SDS011;6813;60.352;15.746;2023-04-24T12:11:14;1.20;;;1.20;;
13481;SDS011;6813;60.352;15.746;2023-04-24T12:13:40;1.50;;;1.40;;
13481;SDS011;6813;60.352;15.746;2023-04-24T12:16:06;1.40;;;1.30;;
13481;SDS011;6813;60.352;15.746;2023-04-24T12:18:32;1.00;;;1.00;;
13481;SDS011;6813;60.352;15.746;2023-04-24T12:23:43;1.20;;;1.10;;
13481;SDS011;6813;60.352;15.746;2023-04-24T12:26:09;1.83;;;1.57;;
13481;SDS011;6813;60.352;15.746;2023-04-24T12:28:36;9.67;;;1.60;;
13481;SDS011;6813;60.352;15.746;2023-04-24T12:31:02;1.40;;;1.30;;
13481;SDS011;6813;60.352;15.746;2023-04-24T12:33:32;1.80;;;1.70;;
13481;SDS011;6813;60.352;15.746;2023-04-24T12:35:59;1.33;;;1.23;;
13481;SDS011;6813;60.352;15.746;2023-04-24T12:38:26;1.30;;;1.13;;
13481;SDS011;6813;60.352;15.746;2023-04-24T12:41:09;3.27;;;2.00;;
13481;SDS011;6813;60.352;15.746;2023-04-24T12:43:37;3.43;;;2.80;;
13481;SDS011;6813;60.352;15.746;2023-04-24T12:46:03;3.10;;;2.80;;
13481;SDS011;6813;60.352;15.746;2023-04-24T12:48:30;2.50;;;1.87;;
13481;SDS011;6813;60.352;15.746;2023-04-24T12:50:59;2.20;;;1.90;;
13481;SDS011;6813;60.352;15.746;2023-04-24T12:53:28;2.43;;;2.10;;
13481;SDS011;6813;60.352;15.746;2023-04-24T12:55:56;2.43;;;2.20;;
13481;SDS011;6813;60.352;15.746;2023-04-24T12:58:22;4.03;;;3.07;;
13481;SDS011;6813;60.352;15.746;2023-04-24T13:00:48;3.10;;;2.80;;
13481;SDS011;6813;60.352;15.746;2023-04-24T13:03:14;3.73;;;2.83;;
13481;SDS011;6813;60.352;15.746;2023-04-24T13:05:40;4.40;;;3.77;;
13481;SDS011;6813;60.352;15.746;2023-04-24T13:08:07;3.80;;;3.50;;
13481;SDS011;6813;60.352;15.746;2023-04-24T13:10:32;4.03;;;3.20;;
13481;SDS011;6813;60.352;15.746;2023-04-24T13:12:59;3.13;;;2.83;;
13481;SDS011;6813;60.352;15.746;2023-04-24T13:15:26;6.20;;;3.30;;
13481;SDS011;6813;60.352;15.746;2023-04-24T13:17:54;4.13;;;3.60;;
13481;SDS011;6813;60.352;15.746;2023-04-24T13:20:20;4.60;;;3.40;;
13481;SDS011;6813;60.352;15.746;2023-04-24T13:22:45;2.70;;;2.50;;
13481;SDS011;6813;60.352;15.746;2023-04-24T13:25:11;3.90;;;2.70;;
13481;SDS011;6813;60.352;15.746;2023-04-24T13:27:40;3.50;;;3.17;;
13481;SDS011;6813;60.352;15.746;2023-04-24T13:30:06;2.47;;;2.27;;
13481;SDS011;6813;60.352;15.746;2023-04-24T13:32:32;2.80;;;2.60;;
13481;SDS011;6813;60.352;15.746;2023-04-24T13:34:58;3.30;;;2.40;;
13481;SDS011;6813;60.352;15.746;2023-04-24T13:37:24;6.37;;;5.80;;
13481;SDS011;6813;60.352;15.746;2023-04-24T13:39:50;3.10;;;2.80;;
13481;SDS011;6813;60.352;15.746;2023-04-24T13:42:15;3.47;;;2.70;;
13481;SDS011;6813;60.352;15.746;2023-04-24T13:44:41;3.17;;;2.87;;
13481;SDS011;6813;60.352;15.746;2023-04-24T13:47:07;5.77;;;2.67;;
13481;SDS011;6813;60.352;15.746;2023-04-24T13:49:33;7.33;;;2.30;;
13481;SDS011;6813;60.352;15.746;2023-04-24T13:51:58;6.47;;;2.20;;
13481;SDS011;6813;60.352;15.746;2023-04-24T13:54:24;2.77;;;2.57;;
13481;SDS011;6813;60.352;15.746;2023-04-24T13:56:51;3.93;;;2.57;;
13481;SDS011;6813;60.352;15.746;2023-04-24T13:59:17;7.73;;;6.73;;
13481;SDS011;6813;60.352;15.746;2023-04-24T14:01:44;2.73;;;2.53;;
13481;SDS011;6813;60.352;15.746;2023-04-24T14:04:10;2.50;;;2.00;;
13481;SDS011;6813;60.352;15.746;2023-04-24T14:06:36;3.93;;;3.63;;
13481;SDS011;6813;60.352;15.746;2023-04-24T14:09:01;3.70;;;3.27;;
13481;SDS011;6813;60.352;15.746;2023-04-24T14:11:27;2.47;;;2.27;;
13481;SDS011;6813;60.352;15.746;2023-04-24T14:13:54;2.37;;;2.03;;
13481;SDS011;6813;60.352;15.746;2023-04-24T14:16:23;2.20;;;2.00;;
13481;SDS011;6813;60.352;15.746;2023-04-24T14:18:49;2.90;;;2.13;;
13481;SDS011;6813;60.352;15.746;2023-04-24T14:21:15;2.43;;;2.23;;
13481;SDS011;6813;60.352;15.746;2023-04-24T14:23:41;8.10;;;2.97;;
13481;SDS011;6813;60.352;15.746;2023-04-24T14:26:07;5.07;;;3.53;;
13481;SDS011;6813;60.352;15.746;2023-04-24T14:28:33;5.97;;;3.60;;
13481;SDS011;6813;60.352;15.746;2023-04-24T14:30:59;2.57;;;2.37;;
13481;SDS011;6813;60.352;15.746;2023-04-24T14:33:24;1.80;;;1.70;;
13481;SDS011;6813;60.352;15.746;2023-04-24T14:35:50;2.70;;;2.10;;
13481;SDS011;6813;60.352;15.746;2023-04-24T14:38:16;1.87;;;1.77;;
13481;SDS011;6813;60.352;15.746;2023-04-24T14:40:42;2.73;;;2.20;;
13481;SDS011;6813;60.352;15.746;2023-04-24T14:43:08;3.67;;;2.27;;
13481;SDS011;6813;60.352;15.746;2023-04-24T14:45:33;1.97;;;1.87;;
13481;SDS011;6813;60.352;15.746;2023-04-24T14:47:59;8.13;;;2.27;;
13481;SDS011;6813;60.352;15.746;2023-04-24T14:50:25;2.70;;;2.27;;
13481;SDS011;6813;60.352;15.746;2023-04-24T14:52:54;2.20;;;2.00;;
13481;SDS011;6813;60.352;15.746;2023-04-24T14:55:24;3.63;;;2.43;;
13481;SDS011;6813;60.352;15.746;2023-04-24T14:57:51;2.60;;;2.00;;
13481;SDS011;6813;60.352;15.746;2023-04-24T15:00:17;2.20;;;2.00;;